X  Fechar Metar - Info de Aeroporto     KDNN Dalton Municipal Airport
Temperatura
84°F Temperatura
68°F Ptº Orvalho
58% Humidade



Vento
0 MPH
0 KM/H
0 M/S
0 NÓS



Calmaria
N
Condições Atuais

Pouco Nublado Pouco Nublado
Pressão 1011.85 (hPa) - 29.88 (inHg)
Visibilidade 10 (milha) - 16.1 (km)
Aeroporto
Código-Aeropoto KDNN

Localização: Dalton Municipal Airport
Distância: 34 (mi)

Metar:
KDNN 252055Z AUTO 00000KT 10SM FEW044 29/20 A2988 RMK AO2 T02870198

Hora: 05-25-2024 16:55 EDT